sensor_id;sensor_type;location;lat;lon;timestamp;temperature;humidity
23089;DHT22;11713;48.506;8.966;2022-08-01T00:01:06;20.90;99.90
23089;DHT22;11713;48.506;8.966;2022-08-01T00:03:32;20.90;99.90
23089;DHT22;11713;48.506;8.966;2022-08-01T00:05:57;20.90;99.90
23089;DHT22;11713;48.506;8.966;2022-08-01T00:08:23;20.90;99.90
23089;DHT22;11713;48.506;8.966;2022-08-01T00:10:49;20.90;99.90
23089;DHT22;11713;48.506;8.966;2022-08-01T00:13:15;20.90;99.90
23089;DHT22;11713;48.506;8.966;2022-08-01T00:15:41;20.80;99.90
23089;DHT22;11713;48.506;8.966;2022-08-01T00:18:07;20.70;99.90
23089;DHT22;11713;48.506;8.966;2022-08-01T00:20:33;20.70;99.90
23089;DHT22;11713;48.506;8.966;2022-08-01T00:23:01;20.60;99.90
23089;DHT22;11713;48.506;8.966;2022-08-01T00:25:27;20.60;99.90
23089;DHT22;11713;48.506;8.966;2022-08-01T00:27:53;20.40;99.90
23089;DHT22;11713;48.506;8.966;2022-08-01T00:30:19;20.40;99.90
23089;DHT22;11713;48.506;8.966;2022-08-01T00:32:45;20.30;99.90
23089;DHT22;11713;48.506;8.966;2022-08-01T00:35:11;20.40;99.90
23089;DHT22;11713;48.506;8.966;2022-08-01T00:37:37;20.30;99.90
23089;DHT22;11713;48.506;8.966;2022-08-01T00:40:04;20.40;99.90
23089;DHT22;11713;48.506;8.966;2022-08-01T00:42:30;20.30;99.90
23089;DHT22;11713;48.506;8.966;2022-08-01T00:44:56;20.20;99.90
23089;DHT22;11713;48.506;8.966;2022-08-01T00:47:22;20.10;99.90
23089;DHT22;11713;48.506;8.966;2022-08-01T00:49:48;20.00;99.90
23089;DHT22;11713;48.506;8.966;2022-08-01T00:52:14;19.90;99.90
23089;DHT22;11713;48.506;8.966;2022-08-01T00:54:40;19.90;99.90
23089;DHT22;11713;48.506;8.966;2022-08-01T00:57:06;19.80;99.90
23089;DHT22;11713;48.506;8.966;2022-08-01T00:59:33;19.70;99.90
23089;DHT22;11713;48.506;8.966;2022-08-01T01:01:59;19.70;99.90
23089;DHT22;11713;48.506;8.966;2022-08-01T01:04:25;19.60;99.90
23089;DHT22;11713;48.506;8.966;2022-08-01T01:07:09;19.60;99.90
23089;DHT22;11713;48.506;8.966;2022-08-01T01:12:44;19.50;99.90
23089;DHT22;11713;48.506;8.966;2022-08-01T01:15:33;19.30;99.90
23089;DHT22;11713;48.506;8.966;2022-08-01T01:18:15;19.30;99.90
23089;DHT22;11713;48.506;8.966;2022-08-01T01:29:32;19.00;99.90
23089;DHT22;11713;48.506;8.966;2022-08-01T01:32:17;19.00;99.90
23089;DHT22;11713;48.506;8.966;2022-08-01T01:34:45;18.80;99.90
23089;DHT22;11713;48.506;8.966;2022-08-01T01:37:16;18.80;99.90
23089;DHT22;11713;48.506;8.966;2022-08-01T01:39:43;18.90;99.90
23089;DHT22;11713;48.506;8.966;2022-08-01T01:42:10;18.90;99.90
23089;DHT22;11713;48.506;8.966;2022-08-01T01:44:37;18.90;99.90
23089;DHT22;11713;48.506;8.966;2022-08-01T01:47:04;18.80;99.90
23089;DHT22;11713;48.506;8.966;2022-08-01T01:49:32;18.80;99.90
23089;DHT22;11713;48.506;8.966;2022-08-01T01:52:00;18.80;99.90
23089;DHT22;11713;48.506;8.966;2022-08-01T01:54:34;18.70;99.90
23089;DHT22;11713;48.506;8.966;2022-08-01T01:57:02;18.70;99.90
23089;DHT22;11713;48.506;8.966;2022-08-01T01:59:31;18.70;99.90
23089;DHT22;11713;48.506;8.966;2022-08-01T02:02:01;18.60;99.90
23089;DHT22;11713;48.506;8.966;2022-08-01T02:04:28;18.70;99.90
23089;DHT22;11713;48.506;8.966;2022-08-01T02:06:56;18.60;99.90
23089;DHT22;11713;48.506;8.966;2022-08-01T02:09:24;18.70;99.90
23089;DHT22;11713;48.506;8.966;2022-08-01T02:11:51;18.60;99.90
23089;DHT22;11713;48.506;8.966;2022-08-01T02:14:19;18.60;99.90
23089;DHT22;11713;48.506;8.966;2022-08-01T02:16:48;18.50;99.90
23089;DHT22;11713;48.506;8.966;2022-08-01T02:19:18;18.50;99.90
23089;DHT22;11713;48.506;8.966;2022-08-01T02:22:00;18.50;99.90
23089;DHT22;11713;48.506;8.966;2022-08-01T02:27:20;18.40;99.90
23089;DHT22;11713;48.506;8.966;2022-08-01T02:30:02;18.30;99.90
23089;DHT22;11713;48.506;8.966;2022-08-01T02:32:52;18.30;99.90
23089;DHT22;11713;48.506;8.966;2022-08-01T02:35:32;18.30;99.90
23089;DHT22;11713;48.506;8.966;2022-08-01T02:38:01;18.30;99.90
23089;DHT22;11713;48.506;8.966;2022-08-01T02:40:28;18.30;99.90
23089;DHT22;11713;48.506;8.966;2022-08-01T02:42:56;18.20;99.90
23089;DHT22;11713;48.506;8.966;2022-08-01T02:45:25;18.20;99.90
23089;DHT22;11713;48.506;8.966;2022-08-01T02:47:55;18.20;99.90
23089;DHT22;11713;48.506;8.966;2022-08-01T02:50:23;18.20;99.90
23089;DHT22;11713;48.506;8.966;2022-08-01T02:52:52;18.20;99.90
23089;DHT22;11713;48.506;8.966;2022-08-01T02:55:20;18.00;99.90
23089;DHT22;11713;48.506;8.966;2022-08-01T02:57:47;17.90;99.90
23089;DHT22;11713;48.506;8.966;2022-08-01T03:00:16;17.90;99.90
23089;DHT22;11713;48.506;8.966;2022-08-01T03:02:43;17.80;99.90
23089;DHT22;11713;48.506;8.966;2022-08-01T03:05:12;17.80;99.90
23089;DHT22;11713;48.506;8.966;2022-08-01T03:07:39;17.80;99.90
23089;DHT22;11713;48.506;8.966;2022-08-01T03:10:06;17.60;99.90
23089;DHT22;11713;48.506;8.966;2022-08-01T03:12:33;17.60;99.90
23089;DHT22;11713;48.506;8.966;2022-08-01T03:15:01;17.60;99.90
23089;DHT22;11713;48.506;8.966;2022-08-01T03:17:29;17.60;99.90
23089;DHT22;11713;48.506;8.966;2022-08-01T03:19:59;17.60;99.90
23089;DHT22;11713;48.506;8.966;2022-08-01T03:22:29;17.50;99.90
23089;DHT22;11713;48.506;8.966;2022-08-01T03:24:59;17.50;99.90
23089;DHT22;11713;48.506;8.966;2022-08-01T03:27:26;17.50;99.90
23089;DHT22;11713;48.506;8.966;2022-08-01T03:29:55;17.50;99.90
23089;DHT22;11713;48.506;8.966;2022-08-01T03:32:23;17.50;99.90
23089;DHT22;11713;48.506;8.966;2022-08-01T03:34:50;17.60;99.90
23089;DHT22;11713;48.506;8.966;2022-08-01T03:37:27;17.60;99.90
23089;DHT22;11713;48.506;8.966;2022-08-01T03:40:52;17.60;99.90
23089;DHT22;11713;48.506;8.966;2022-08-01T03:42:56;17.60;99.90
23089;DHT22;11713;48.506;8.966;2022-08-01T03:45:27;17.50;99.90
23089;DHT22;11713;48.506;8.966;2022-08-01T03:48:00;17.40;99.90
23089;DHT22;11713;48.506;8.966;2022-08-01T03:50:28;17.30;99.90
23089;DHT22;11713;48.506;8.966;2022-08-01T03:52:57;17.20;99.90
23089;DHT22;11713;48.506;8.966;2022-08-01T03:55:25;17.10;99.90
23089;DHT22;11713;48.506;8.966;2022-08-01T03:57:51;17.10;99.90
23089;DHT22;11713;48.506;8.966;2022-08-01T04:00:21;17.10;99.90
23089;DHT22;11713;48.506;8.966;2022-08-01T04:02:49;17.10;99.90
23089;DHT22;11713;48.506;8.966;2022-08-01T04:05:16;17.10;99.90
23089;DHT22;11713;48.506;8.966;2022-08-01T04:07:46;17.10;99.90
23089;DHT22;11713;48.506;8.966;2022-08-01T04:10:12;17.10;99.90
23089;DHT22;11713;48.506;8.966;2022-08-01T04:12:38;17.00;99.90
23089;DHT22;11713;48.506;8.966;2022-08-01T04:15:05;17.00;99.90
23089;DHT22;11713;48.506;8.966;2022-08-01T04:17:31;17.00;99.90
23089;DHT22;11713;48.506;8.966;2022-08-01T04:19:57;16.90;99.90
23089;DHT22;11713;48.506;8.966;2022-08-01T04:22:23;16.80;99.90
23089;DHT22;11713;48.506;8.966;2022-08-01T04:24:51;16.80;99.90
23089;DHT22;11713;48.506;8.966;2022-08-01T04:27:31;16.70;99.90
23089;DHT22;11713;48.506;8.966;2022-08-01T04:30:00;16.70;99.90
23089;DHT22;11713;48.506;8.966;2022-08-01T04:32:29;16.70;99.90
23089;DHT22;11713;48.506;8.966;2022-08-01T04:34:57;16.70;99.90
23089;DHT22;11713;48.506;8.966;2022-08-01T04:37:28;16.70;99.90
23089;DHT22;11713;48.506;8.966;2022-08-01T04:39:55;16.70;99.90
23089;DHT22;11713;48.506;8.966;2022-08-01T04:42:22;16.80;99.90
23089;DHT22;11713;48.506;8.966;2022-08-01T04:44:48;17.00;99.90
23089;DHT22;11713;48.506;8.966;2022-08-01T04:47:14;17.00;99.90
23089;DHT22;11713;48.506;8.966;2022-08-01T04:49:41;17.10;99.90
23089;DHT22;11713;48.506;8.966;2022-08-01T04:52:07;17.10;99.90
23089;DHT22;11713;48.506;8.966;2022-08-01T04:54:36;17.20;99.90
23089;DHT22;11713;48.506;8.966;2022-08-01T04:57:05;17.40;99.90
23089;DHT22;11713;48.506;8.966;2022-08-01T04:59:33;17.40;99.90
23089;DHT22;11713;48.506;8.966;2022-08-01T05:02:21;17.50;99.90
23089;DHT22;11713;48.506;8.966;2022-08-01T05:04:48;17.60;99.90
23089;DHT22;11713;48.506;8.966;2022-08-01T05:07:14;17.60;99.90
23089;DHT22;11713;48.506;8.966;2022-08-01T05:09:41;17.70;99.90
23089;DHT22;11713;48.506;8.966;2022-08-01T05:12:09;17.80;99.90
23089;DHT22;11713;48.506;8.966;2022-08-01T05:14:36;17.80;99.90
23089;DHT22;11713;48.506;8.966;2022-08-01T05:17:04;17.90;99.90
23089;DHT22;11713;48.506;8.966;2022-08-01T05:19:31;18.00;99.90
23089;DHT22;11713;48.506;8.966;2022-08-01T05:22:03;18.10;99.90
23089;DHT22;11713;48.506;8.966;2022-08-01T05:24:38;18.20;99.90
23089;DHT22;11713;48.506;8.966;2022-08-01T05:27:05;18.20;99.90
23089;DHT22;11713;48.506;8.966;2022-08-01T05:29:34;18.30;99.90
23089;DHT22;11713;48.506;8.966;2022-08-01T05:32:00;18.20;99.90
23089;DHT22;11713;48.506;8.966;2022-08-01T05:34:26;18.30;99.90
23089;DHT22;11713;48.506;8.966;2022-08-01T05:36:55;18.30;99.90
23089;DHT22;11713;48.506;8.966;2022-08-01T05:39:20;18.20;99.90
23089;DHT22;11713;48.506;8.966;2022-08-01T05:41:46;18.30;99.90
23089;DHT22;11713;48.506;8.966;2022-08-01T05:44:12;18.30;99.90
23089;DHT22;11713;48.506;8.966;2022-08-01T05:46:38;18.40;99.90
23089;DHT22;11713;48.506;8.966;2022-08-01T05:49:04;18.50;99.90
23089;DHT22;11713;48.506;8.966;2022-08-01T05:51:31;18.50;99.90
23089;DHT22;11713;48.506;8.966;2022-08-01T05:53:57;18.60;99.90
23089;DHT22;11713;48.506;8.966;2022-08-01T05:56:25;18.70;99.90
23089;DHT22;11713;48.506;8.966;2022-08-01T05:58:51;18.90;99.90
23089;DHT22;11713;48.506;8.966;2022-08-01T06:01:18;19.00;99.90
23089;DHT22;11713;48.506;8.966;2022-08-01T06:03:44;19.20;99.90
23089;DHT22;11713;48.506;8.966;2022-08-01T06:06:11;19.40;99.90
23089;DHT22;11713;48.506;8.966;2022-08-01T06:08:37;19.50;99.90
23089;DHT22;11713;48.506;8.966;2022-08-01T06:11:03;19.60;99.90
23089;DHT22;11713;48.506;8.966;2022-08-01T06:13:29;19.80;99.90
23089;DHT22;11713;48.506;8.966;2022-08-01T06:15:54;19.90;99.90
23089;DHT22;11713;48.506;8.966;2022-08-01T06:18:20;20.00;99.90
23089;DHT22;11713;48.506;8.966;2022-08-01T06:20:46;20.20;99.90
23089;DHT22;11713;48.506;8.966;2022-08-01T06:23:13;20.30;99.90
23089;DHT22;11713;48.506;8.966;2022-08-01T06:25:43;20.40;99.90
23089;DHT22;11713;48.506;8.966;2022-08-01T06:28:09;20.50;99.90
23089;DHT22;11713;48.506;8.966;2022-08-01T06:30:35;20.60;99.90
23089;DHT22;11713;48.506;8.966;2022-08-01T06:33:01;20.70;99.90
23089;DHT22;11713;48.506;8.966;2022-08-01T06:35:28;20.80;99.90
23089;DHT22;11713;48.506;8.966;2022-08-01T06:37:56;20.90;99.90
23089;DHT22;11713;48.506;8.966;2022-08-01T06:40:22;21.10;99.90
23089;DHT22;11713;48.506;8.966;2022-08-01T06:42:47;21.20;99.90
23089;DHT22;11713;48.506;8.966;2022-08-01T06:45:14;21.40;99.90
23089;DHT22;11713;48.506;8.966;2022-08-01T06:47:42;21.50;99.90
23089;DHT22;11713;48.506;8.966;2022-08-01T06:50:09;21.70;99.90
23089;DHT22;11713;48.506;8.966;2022-08-01T06:52:36;21.80;99.90
23089;DHT22;11713;48.506;8.966;2022-08-01T06:55:03;21.90;99.90
23089;DHT22;11713;48.506;8.966;2022-08-01T06:57:29;22.10;99.90
23089;DHT22;11713;48.506;8.966;2022-08-01T06:59:55;22.30;99.90
23089;DHT22;11713;48.506;8.966;2022-08-01T07:02:22;22.40;99.90
23089;DHT22;11713;48.506;8.966;2022-08-01T07:04:48;22.40;99.90
23089;DHT22;11713;48.506;8.966;2022-08-01T07:07:14;22.50;99.90
23089;DHT22;11713;48.506;8.966;2022-08-01T07:09:39;22.70;99.90
23089;DHT22;11713;48.506;8.966;2022-08-01T07:12:08;22.70;99.90
23089;DHT22;11713;48.506;8.966;2022-08-01T07:14:34;22.70;99.90
23089;DHT22;11713;48.506;8.966;2022-08-01T07:17:00;22.80;99.90
23089;DHT22;11713;48.506;8.966;2022-08-01T07:19:26;22.80;99.90
23089;DHT22;11713;48.506;8.966;2022-08-01T07:21:53;22.90;99.90
23089;DHT22;11713;48.506;8.966;2022-08-01T07:24:20;23.00;99.90
23089;DHT22;11713;48.506;8.966;2022-08-01T07:26:48;23.00;99.90
23089;DHT22;11713;48.506;8.966;2022-08-01T07:29:15;23.20;99.90
23089;DHT22;11713;48.506;8.966;2022-08-01T07:31:41;23.40;99.90
23089;DHT22;11713;48.506;8.966;2022-08-01T07:34:07;23.60;99.90
23089;DHT22;11713;48.506;8.966;2022-08-01T07:36:33;23.80;99.90
23089;DHT22;11713;48.506;8.966;2022-08-01T07:39:01;24.00;99.90
23089;DHT22;11713;48.506;8.966;2022-08-01T07:41:29;24.20;99.90
23089;DHT22;11713;48.506;8.966;2022-08-01T07:43:57;24.30;99.90
23089;DHT22;11713;48.506;8.966;2022-08-01T07:46:23;24.30;99.90
23089;DHT22;11713;48.506;8.966;2022-08-01T07:48:48;24.50;99.90
23089;DHT22;11713;48.506;8.966;2022-08-01T07:51:14;24.60;99.90
23089;DHT22;11713;48.506;8.966;2022-08-01T07:53:41;24.60;99.90
23089;DHT22;11713;48.506;8.966;2022-08-01T07:56:11;24.70;99.90
23089;DHT22;11713;48.506;8.966;2022-08-01T07:58:40;24.90;99.90
23089;DHT22;11713;48.506;8.966;2022-08-01T08:01:06;25.10;99.90
23089;DHT22;11713;48.506;8.966;2022-08-01T08:03:39;25.20;99.90
23089;DHT22;11713;48.506;8.966;2022-08-01T08:06:06;25.30;99.90
23089;DHT22;11713;48.506;8.966;2022-08-01T08:08:35;25.50;99.90
23089;DHT22;11713;48.506;8.966;2022-08-01T08:11:01;25.60;99.90
23089;DHT22;11713;48.506;8.966;2022-08-01T08:13:27;25.70;99.90
23089;DHT22;11713;48.506;8.966;2022-08-01T08:15:53;25.80;99.90
23089;DHT22;11713;48.506;8.966;2022-08-01T08:18:19;25.90;99.90
23089;DHT22;11713;48.506;8.966;2022-08-01T08:20:45;26.10;99.90
23089;DHT22;11713;48.506;8.966;2022-08-01T08:23:12;26.30;99.90
23089;DHT22;11713;48.506;8.966;2022-08-01T08:25:58;26.40;99.90
23089;DHT22;11713;48.506;8.966;2022-08-01T08:28:25;26.60;99.90
23089;DHT22;11713;48.506;8.966;2022-08-01T08:30:54;26.70;99.90
23089;DHT22;11713;48.506;8.966;2022-08-01T08:33:21;26.60;99.90
23089;DHT22;11713;48.506;8.966;2022-08-01T08:35:47;26.70;99.90
23089;DHT22;11713;48.506;8.966;2022-08-01T08:38:22;26.90;99.90
23089;DHT22;11713;48.506;8.966;2022-08-01T08:40:51;27.20;99.90
23089;DHT22;11713;48.506;8.966;2022-08-01T08:43:20;27.40;99.90
23089;DHT22;11713;48.506;8.966;2022-08-01T08:45:47;27.40;99.90
23089;DHT22;11713;48.506;8.966;2022-08-01T08:48:15;27.10;99.90
23089;DHT22;11713;48.506;8.966;2022-08-01T08:50:42;27.20;99.90
23089;DHT22;11713;48.506;8.966;2022-08-01T08:53:09;27.30;99.90
23089;DHT22;11713;48.506;8.966;2022-08-01T08:55:37;27.30;99.90
23089;DHT22;11713;48.506;8.966;2022-08-01T08:58:04;27.30;99.90
23089;DHT22;11713;48.506;8.966;2022-08-01T09:00:45;27.30;99.90
23089;DHT22;11713;48.506;8.966;2022-08-01T09:03:12;27.20;99.90
23089;DHT22;11713;48.506;8.966;2022-08-01T09:05:38;27.00;99.90
23089;DHT22;11713;48.506;8.966;2022-08-01T09:08:07;27.00;99.90
23089;DHT22;11713;48.506;8.966;2022-08-01T09:10:35;27.00;99.90
23089;DHT22;11713;48.506;8.966;2022-08-01T09:15:50;27.00;99.90
23089;DHT22;11713;48.506;8.966;2022-08-01T09:18:34;26.90;99.90
23089;DHT22;11713;48.506;8.966;2022-08-01T09:21:08;26.80;99.90
23089;DHT22;11713;48.506;8.966;2022-08-01T09:23:38;26.80;99.90
23089;DHT22;11713;48.506;8.966;2022-08-01T09:26:06;26.70;99.90
23089;DHT22;11713;48.506;8.966;2022-08-01T09:28:32;26.90;99.90
23089;DHT22;11713;48.506;8.966;2022-08-01T09:30:58;27.00;99.90
23089;DHT22;11713;48.506;8.966;2022-08-01T09:33:24;26.90;99.90
23089;DHT22;11713;48.506;8.966;2022-08-01T09:35:56;26.90;99.90
23089;DHT22;11713;48.506;8.966;2022-08-01T09:38:26;26.90;99.90
23089;DHT22;11713;48.506;8.966;2022-08-01T09:40:55;27.00;99.90
23089;DHT22;11713;48.506;8.966;2022-08-01T09:43:23;27.40;99.90
23089;DHT22;11713;48.506;8.966;2022-08-01T09:45:50;27.70;99.90
23089;DHT22;11713;48.506;8.966;2022-08-01T09:48:16;27.80;99.90
23089;DHT22;11713;48.506;8.966;2022-08-01T09:50:47;28.00;99.90
23089;DHT22;11713;48.506;8.966;2022-08-01T09:53:14;27.80;99.90
23089;DHT22;11713;48.506;8.966;2022-08-01T09:55:42;27.80;99.90
23089;DHT22;11713;48.506;8.966;2022-08-01T09:58:08;27.80;99.90
23089;DHT22;11713;48.506;8.966;2022-08-01T10:00:36;27.70;99.90
23089;DHT22;11713;48.506;8.966;2022-08-01T10:03:23;27.60;99.90
23089;DHT22;11713;48.506;8.966;2022-08-01T10:05:50;27.60;99.90
23089;DHT22;11713;48.506;8.966;2022-08-01T10:08:16;27.50;99.90
23089;DHT22;11713;48.506;8.966;2022-08-01T10:11:04;27.50;99.90
23089;DHT22;11713;48.506;8.966;2022-08-01T10:13:32;27.80;99.90
23089;DHT22;11713;48.506;8.966;2022-08-01T10:16:00;28.00;99.90
23089;DHT22;11713;48.506;8.966;2022-08-01T10:18:27;28.20;99.90
23089;DHT22;11713;48.506;8.966;2022-08-01T10:20:54;28.00;99.90
23089;DHT22;11713;48.506;8.966;2022-08-01T10:23:21;27.80;99.90
23089;DHT22;11713;48.506;8.966;2022-08-01T10:25:48;27.70;99.90
23089;DHT22;11713;48.506;8.966;2022-08-01T10:28:17;27.60;99.90
23089;DHT22;11713;48.506;8.966;2022-08-01T10:30:44;27.60;99.90
23089;DHT22;11713;48.506;8.966;2022-08-01T10:33:11;27.70;99.90
23089;DHT22;11713;48.506;8.966;2022-08-01T10:35:41;27.90;99.90
23089;DHT22;11713;48.506;8.966;2022-08-01T10:38:07;28.00;99.90
23089;DHT22;11713;48.506;8.966;2022-08-01T10:40:34;28.20;99.90
23089;DHT22;11713;48.506;8.966;2022-08-01T10:43:02;28.00;99.40
23089;DHT22;11713;48.506;8.966;2022-08-01T10:45:28;28.10;99.90
23089;DHT22;11713;48.506;8.966;2022-08-01T10:48:12;28.00;99.60
23089;DHT22;11713;48.506;8.966;2022-08-01T10:50:41;27.80;99.70
23089;DHT22;11713;48.506;8.966;2022-08-01T10:58:30;27.80;99.80
23089;DHT22;11713;48.506;8.966;2022-08-01T11:01:25;27.80;99.90
23089;DHT22;11713;48.506;8.966;2022-08-01T11:04:10;27.90;99.90
23089;DHT22;11713;48.506;8.966;2022-08-01T11:11:58;27.70;99.90
23089;DHT22;11713;48.506;8.966;2022-08-01T11:14:28;28.00;99.90
23089;DHT22;11713;48.506;8.966;2022-08-01T11:16:55;28.10;99.50
23089;DHT22;11713;48.506;8.966;2022-08-01T11:19:22;28.30;99.90
23089;DHT22;11713;48.506;8.966;2022-08-01T11:21:59;28.60;99.50
23089;DHT22;11713;48.506;8.966;2022-08-01T11:27:30;28.80;98.00
23089;DHT22;11713;48.506;8.966;2022-08-01T11:32:58;28.60;97.20
23089;DHT22;11713;48.506;8.966;2022-08-01T11:35:35;28.40;98.80
23089;DHT22;11713;48.506;8.966;2022-08-01T11:38:24;28.00;99.60
23089;DHT22;11713;48.506;8.966;2022-08-01T11:41:16;27.80;99.90
23089;DHT22;11713;48.506;8.966;2022-08-01T11:43:58;27.80;99.90
23089;DHT22;11713;48.506;8.966;2022-08-01T11:46:47;27.70;99.90
23089;DHT22;11713;48.506;8.966;2022-08-01T11:52:06;27.60;99.90
23089;DHT22;11713;48.506;8.966;2022-08-01T11:57:12;27.50;99.90
23089;DHT22;11713;48.506;8.966;2022-08-01T11:59:57;27.50;99.90
23089;DHT22;11713;48.506;8.966;2022-08-01T12:02:28;27.70;99.90
23089;DHT22;11713;48.506;8.966;2022-08-01T12:05:10;27.80;99.90
23089;DHT22;11713;48.506;8.966;2022-08-01T12:07:39;28.00;99.90
23089;DHT22;11713;48.506;8.966;2022-08-01T12:10:08;28.10;99.90
23089;DHT22;11713;48.506;8.966;2022-08-01T12:12:36;28.30;99.90
23089;DHT22;11713;48.506;8.966;2022-08-01T12:15:08;28.40;99.90
23089;DHT22;11713;48.506;8.966;2022-08-01T12:17:40;28.50;99.90
23089;DHT22;11713;48.506;8.966;2022-08-01T12:20:09;28.60;99.90
23089;DHT22;11713;48.506;8.966;2022-08-01T12:22:37;28.70;99.80
23089;DHT22;11713;48.506;8.966;2022-08-01T12:25:12;28.70;99.90
23089;DHT22;11713;48.506;8.966;2022-08-01T12:27:42;28.80;99.90
23089;DHT22;11713;48.506;8.966;2022-08-01T12:30:11;29.10;99.90
23089;DHT22;11713;48.506;8.966;2022-08-01T12:32:39;29.60;98.60
23089;DHT22;11713;48.506;8.966;2022-08-01T12:37:41;30.10;98.10
23089;DHT22;11713;48.506;8.966;2022-08-01T12:42:44;30.70;97.30
23089;DHT22;11713;48.506;8.966;2022-08-01T12:45:16;30.50;96.40
23089;DHT22;11713;48.506;8.966;2022-08-01T12:47:43;30.60;96.50
23089;DHT22;11713;48.506;8.966;2022-08-01T12:50:22;30.90;96.40
23089;DHT22;11713;48.506;8.966;2022-08-01T12:52:50;31.30;96.10
23089;DHT22;11713;48.506;8.966;2022-08-01T12:55:21;31.40;95.70
23089;DHT22;11713;48.506;8.966;2022-08-01T12:57:50;31.30;95.30
23089;DHT22;11713;48.506;8.966;2022-08-01T13:00:25;31.40;95.50
23089;DHT22;11713;48.506;8.966;2022-08-01T13:03:04;31.30;95.70
23089;DHT22;11713;48.506;8.966;2022-08-01T13:08:30;31.40;95.60
23089;DHT22;11713;48.506;8.966;2022-08-01T13:11:07;31.20;95.40
23089;DHT22;11713;48.506;8.966;2022-08-01T13:13:42;31.10;95.00
23089;DHT22;11713;48.506;8.966;2022-08-01T13:16:09;30.80;95.40
23089;DHT22;11713;48.506;8.966;2022-08-01T13:18:35;30.80;95.90
23089;DHT22;11713;48.506;8.966;2022-08-01T13:21:13;30.60;95.70
23089;DHT22;11713;48.506;8.966;2022-08-01T13:23:42;30.60;95.30
23089;DHT22;11713;48.506;8.966;2022-08-01T13:29:08;31.00;94.90
23089;DHT22;11713;48.506;8.966;2022-08-01T13:31:43;31.10;94.00
23089;DHT22;11713;48.506;8.966;2022-08-01T13:34:12;31.10;94.10
23089;DHT22;11713;48.506;8.966;2022-08-01T13:36:39;31.30;94.10
23089;DHT22;11713;48.506;8.966;2022-08-01T13:39:06;31.40;93.70
23089;DHT22;11713;48.506;8.966;2022-08-01T13:41:51;31.20;93.80
23089;DHT22;11713;48.506;8.966;2022-08-01T13:44:17;31.20;94.10
23089;DHT22;11713;48.506;8.966;2022-08-01T13:46:44;31.20;94.00
23089;DHT22;11713;48.506;8.966;2022-08-01T13:49:11;31.20;93.80
23089;DHT22;11713;48.506;8.966;2022-08-01T13:51:38;31.40;94.50
23089;DHT22;11713;48.506;8.966;2022-08-01T13:54:04;31.50;93.10
23089;DHT22;11713;48.506;8.966;2022-08-01T13:56:31;31.40;92.90
23089;DHT22;11713;48.506;8.966;2022-08-01T13:58:57;31.30;93.00
23089;DHT22;11713;48.506;8.966;2022-08-01T14:01:24;31.20;93.30
23089;DHT22;11713;48.506;8.966;2022-08-01T14:03:50;31.10;94.20
23089;DHT22;11713;48.506;8.966;2022-08-01T14:06:18;31.00;94.30
23089;DHT22;11713;48.506;8.966;2022-08-01T14:08:44;30.80;94.50
23089;DHT22;11713;48.506;8.966;2022-08-01T14:11:10;30.60;94.90
23089;DHT22;11713;48.506;8.966;2022-08-01T14:13:38;30.40;94.90
23089;DHT22;11713;48.506;8.966;2022-08-01T14:16:06;30.30;94.80
23089;DHT22;11713;48.506;8.966;2022-08-01T14:18:32;30.20;94.90
23089;DHT22;11713;48.506;8.966;2022-08-01T14:20:59;30.10;95.20
23089;DHT22;11713;48.506;8.966;2022-08-01T14:23:25;30.30;95.20
23089;DHT22;11713;48.506;8.966;2022-08-01T14:25:51;30.40;94.50
23089;DHT22;11713;48.506;8.966;2022-08-01T14:28:17;30.30;94.80
23089;DHT22;11713;48.506;8.966;2022-08-01T14:30:44;30.10;95.30
23089;DHT22;11713;48.506;8.966;2022-08-01T14:33:11;30.10;95.50
23089;DHT22;11713;48.506;8.966;2022-08-01T14:35:37;30.10;95.70
23089;DHT22;11713;48.506;8.966;2022-08-01T14:38:03;30.10;95.70
23089;DHT22;11713;48.506;8.966;2022-08-01T14:40:29;30.00;95.70
23089;DHT22;11713;48.506;8.966;2022-08-01T14:42:55;29.90;95.90
23089;DHT22;11713;48.506;8.966;2022-08-01T14:45:21;29.70;96.00
23089;DHT22;11713;48.506;8.966;2022-08-01T14:47:47;29.60;96.40
23089;DHT22;11713;48.506;8.966;2022-08-01T14:50:15;29.50;96.20
23089;DHT22;11713;48.506;8.966;2022-08-01T14:52:42;29.40;96.50
23089;DHT22;11713;48.506;8.966;2022-08-01T14:55:10;29.40;97.00
23089;DHT22;11713;48.506;8.966;2022-08-01T14:57:38;29.30;97.10
23089;DHT22;11713;48.506;8.966;2022-08-01T15:00:06;29.20;97.00
23089;DHT22;11713;48.506;8.966;2022-08-01T15:02:32;28.90;97.00
23089;DHT22;11713;48.506;8.966;2022-08-01T15:04:58;28.90;97.80
23089;DHT22;11713;48.506;8.966;2022-08-01T15:07:28;28.90;97.30
23089;DHT22;11713;48.506;8.966;2022-08-01T15:09:54;29.00;97.60
23089;DHT22;11713;48.506;8.966;2022-08-01T15:12:20;29.00;97.10
23089;DHT22;11713;48.506;8.966;2022-08-01T15:14:46;29.00;97.40
23089;DHT22;11713;48.506;8.966;2022-08-01T15:17:28;29.20;97.80
23089;DHT22;11713;48.506;8.966;2022-08-01T15:19:59;29.20;97.20
23089;DHT22;11713;48.506;8.966;2022-08-01T15:22:27;29.30;97.10
23089;DHT22;11713;48.506;8.966;2022-08-01T15:24:55;29.40;97.00
23089;DHT22;11713;48.506;8.966;2022-08-01T15:27:22;29.40;96.30
23089;DHT22;11713;48.506;8.966;2022-08-01T15:29:49;29.30;96.80
23089;DHT22;11713;48.506;8.966;2022-08-01T15:32:15;29.20;96.00
23089;DHT22;11713;48.506;8.966;2022-08-01T15:34:42;29.20;96.10
23089;DHT22;11713;48.506;8.966;2022-08-01T15:37:09;29.10;95.60
23089;DHT22;11713;48.506;8.966;2022-08-01T15:39:36;29.20;95.90
23089;DHT22;11713;48.506;8.966;2022-08-01T15:42:04;29.20;95.70
23089;DHT22;11713;48.506;8.966;2022-08-01T15:44:31;29.30;95.40
23089;DHT22;11713;48.506;8.966;2022-08-01T15:46:57;29.30;95.40
23089;DHT22;11713;48.506;8.966;2022-08-01T15:49:22;29.30;95.00
23089;DHT22;11713;48.506;8.966;2022-08-01T15:51:50;29.20;95.00
23089;DHT22;11713;48.506;8.966;2022-08-01T15:54:22;29.10;95.30
23089;DHT22;11713;48.506;8.966;2022-08-01T15:56:52;29.00;95.50
23089;DHT22;11713;48.506;8.966;2022-08-01T15:59:23;28.80;95.70
23089;DHT22;11713;48.506;8.966;2022-08-01T16:01:58;28.70;96.10
23089;DHT22;11713;48.506;8.966;2022-08-01T16:04:24;28.70;96.20
23089;DHT22;11713;48.506;8.966;2022-08-01T16:06:55;28.70;96.10
23089;DHT22;11713;48.506;8.966;2022-08-01T16:09:23;28.60;96.20
23089;DHT22;11713;48.506;8.966;2022-08-01T16:12:10;28.60;96.40
23089;DHT22;11713;48.506;8.966;2022-08-01T16:14:37;28.60;96.70
23089;DHT22;11713;48.506;8.966;2022-08-01T16:17:03;28.60;96.50
23089;DHT22;11713;48.506;8.966;2022-08-01T16:19:33;28.50;96.50
23089;DHT22;11713;48.506;8.966;2022-08-01T16:22:11;28.30;96.70
23089;DHT22;11713;48.506;8.966;2022-08-01T16:24:37;28.30;96.80
23089;DHT22;11713;48.506;8.966;2022-08-01T16:27:17;28.20;97.70
23089;DHT22;11713;48.506;8.966;2022-08-01T16:29:52;28.20;98.60
23089;DHT22;11713;48.506;8.966;2022-08-01T16:32:21;28.10;99.80